CheckWX is a tool to help pilots better visualize weather data.  It is not intended as a substitute for an official pre-flight weather briefing.

21:33:17 UTC

KSSF METAR
Stinson Municipal Airport
San Antonio, Texas, USA
Current

40 mins ago

KSSF 082053Z 16010G20KT 10SM CLR 36/20 A2984 RMK AO2 PK WND 11027/2009 SLP088 T03610200 56023
Observed
Jul-8 @ 20:53 UTC
Wind
  • 160° at 10 KTS
  • Gusting to 20 KTS
Visibility
10 SM
Flight Rules
VFR
Cloud Levels
  • Clear skies
Temperature
36°C / 97°F
Dewpoint
20°C / 68°F
Humidity
39%
Altimeter
29.84" Hg
Pressure
1010.52 hPa
Previous

2 hours ago

KSSF 081953Z VRB06G16KT 10SM SCT055 36/21 A2986 RMK AO2 SLP095 T03560211
Observed
Jul-8 @ 19:53 UTC
Wind
  • Variable at 6 KTS
  • Gusting to 16 KTS
Visibility
10 SM
Flight Rules
VFR
Cloud Levels
  • Scattered at 5,500' AGL
Temperature
36°C / 97°F
Dewpoint
21°C / 70°F
Humidity
42%
Altimeter
29.86" Hg
Pressure
1011.22 hPa
Previous

3 hours ago

KSSF 081853Z 16006KT 10SM SCT049 33/22 A2988 RMK AO2 SLP106 T03330222
Observed
Jul-8 @ 18:53 UTC
Wind
  • 160° at 6 KTS
Visibility
10 SM
Flight Rules
VFR
Cloud Levels
  • Scattered at 4,900' AGL
Temperature
33°C / 91°F
Dewpoint
22°C / 72°F
Humidity
52%
Altimeter
29.88" Hg
Pressure
1011.82 hPa